Time;durP1;ratioP1;P1;durP2;ratioP2;P2;SDS_P1;SDS_P2;PMS_P1;PMS_P2;Temp;Humidity;BMP_temperature;BMP_pressure;BME280_temperature;BME280_humidity;BME280_pressure;Samples;Min_cycle;Max_cycle;Signal;HPM_P1;HPM_P2
2023/05/05 00:02:18;;;;;;;21.30;13.15;;;14.40;73.40;;;;;;5057007;28;20032;-71
2023/05/05 00:04:44;;;;;;;16.15;10.95;;;14.30;73.70;;;;;;5057363;28;20025;-71
2023/05/05 00:07:10;;;;;;;17.30;12.00;;;14.30;73.50;;;;;;5057082;28;20512;-71
2023/05/05 00:09:36;;;;;;;26.40;17.90;;;14.30;73.50;;;;;;5057242;28;20047;-71
2023/05/05 00:12:02;;;;;;;22.63;15.63;;;14.30;74.30;;;;;;5056948;28;20430;-71
2023/05/05 00:14:28;;;;;;;19.05;13.10;;;14.20;74.90;;;;;;5056915;28;20021;-71
2023/05/05 00:16:54;;;;;;;14.80;10.98;;;14.20;74.90;;;;;;5056891;28;20079;-71
2023/05/05 00:19:20;;;;;;;18.15;12.18;;;14.20;74.10;;;;;;5056805;28;20025;-71
2023/05/05 00:21:47;;;;;;;18.35;12.02;;;14.20;73.90;;;;;;5056724;28;20032;-71
2023/05/05 00:24:13;;;;;;;18.65;12.75;;;14.20;73.80;;;;;;5056759;28;20064;-71
2023/05/05 00:26:39;;;;;;;15.85;10.38;;;14.20;73.90;;;;;;5057174;28;20061;-71
2023/05/05 00:29:05;;;;;;;16.00;11.15;;;14.20;73.80;;;;;;5056919;28;20453;-71
2023/05/05 00:31:31;;;;;;;18.58;12.82;;;14.20;73.70;;;;;;5056574;28;20445;-71
2023/05/05 00:33:56;;;;;;;14.18;10.60;;;14.20;73.60;;;;;;5057095;28;20342;-71
2023/05/05 00:36:22;;;;;;;16.23;11.57;;;14.10;73.70;;;;;;5056498;28;20331;-71
2023/05/05 00:38:48;;;;;;;15.80;10.25;;;14.10;73.70;;;;;;5057018;28;20025;-71
2023/05/05 00:41:14;;;;;;;15.15;10.50;;;14.00;73.60;;;;;;5056869;28;20021;-71
2023/05/05 00:43:40;;;;;;;13.30;9.20;;;14.00;73.80;;;;;;5056317;28;20033;-71
2023/05/05 00:46:25;;;;;;;13.63;9.75;;;14.00;73.80;;;;;;5056510;28;20035;-71
2023/05/05 00:48:52;;;;;;;16.48;10.40;;;14.00;73.60;;;;;;5056802;28;20438;-71
2023/05/05 00:51:19;;;;;;;14.07;10.18;;;14.00;73.70;;;;;;5056414;28;20028;-71
2023/05/05 00:53:49;;;;;;;13.98;9.68;;;14.00;73.70;;;;;;5056388;28;20049;-71
2023/05/05 00:56:18;;;;;;;17.58;11.40;;;13.90;73.80;;;;;;5056376;28;20083;-71
2023/05/05 00:58:44;;;;;;;13.13;10.00;;;13.90;73.80;;;;;;5056018;28;20446;-71
2023/05/05 01:01:14;;;;;;;15.35;10.85;;;13.90;73.90;;;;;;5055942;28;20024;-71
2023/05/05 01:03:40;;;;;;;14.48;10.45;;;13.90;73.80;;;;;;5056204;28;20044;-71
2023/05/05 01:06:18;;;;;;;17.10;11.50;;;13.90;73.90;;;;;;5055854;28;20033;-71
2023/05/05 01:09:08;;;;;;;14.15;9.43;;;13.90;73.80;;;;;;5056110;28;20039;-71
2023/05/05 01:11:51;;;;;;;14.38;10.45;;;13.80;73.80;;;;;;5056153;28;20538;-71
2023/05/05 01:14:27;;;;;;;15.13;10.38;;;13.80;73.90;;;;;;5056339;28;20029;-70
2023/05/05 01:17:01;;;;;;;16.33;10.23;;;13.80;74.00;;;;;;5056013;28;20025;-70
2023/05/05 01:19:48;;;;;;;15.98;10.05;;;13.80;73.80;;;;;;5055962;28;20118;-70
2023/05/05 01:22:52;;;;;;;14.55;10.27;;;13.80;73.90;;;;;;5056149;28;20032;-70
2023/05/05 01:25:54;;;;;;;16.73;10.45;;;13.70;73.90;;;;;;5056033;28;20021;-71
2023/05/05 01:28:32;;;;;;;14.65;9.98;;;13.70;73.90;;;;;;5055506;28;20029;-70
2023/05/05 01:31:17;;;;;;;16.38;10.95;;;13.70;73.90;;;;;;5055902;28;20211;-70
2023/05/05 01:33:50;;;;;;;13.30;9.65;;;13.60;73.90;;;;;;5055457;28;20021;-70
2023/05/05 01:36:24;;;;;;;;;;;13.60;74.00;;;;;;5056124;28;20029;-71
2023/05/05 01:38:59;;;;;;;13.55;9.93;;;13.60;74.80;;;;;;5055411;28;19991;-71
2023/05/05 01:41:31;;;;;;;16.08;9.45;;;13.50;74.10;;;;;;5055230;28;20021;-71
2023/05/05 01:44:02;;;;;;;12.63;8.82;;;13.50;74.10;;;;;;5055251;28;20047;-70
2023/05/05 01:46:29;;;;;;;22.25;14.60;;;13.50;74.10;;;;;;5055135;28;20327;-70
2023/05/05 01:48:57;;;;;;;19.73;13.48;;;13.50;74.90;;;;;;5055129;28;20045;-70
2023/05/05 01:51:25;;;;;;;13.73;10.45;;;13.40;75.20;;;;;;5055283;28;20017;-70
2023/05/05 01:53:55;;;;;;;21.92;13.20;;;13.40;74.70;;;;;;5054832;28;20049;-70
2023/05/05 01:56:23;;;;;;;18.73;12.15;;;13.40;75.10;;;;;;5055084;28;20025;-70
2023/05/05 01:58:50;;;;;;;16.95;12.02;;;13.40;75.00;;;;;;5055326;28;20029;-70
2023/05/05 02:01:19;;;;;;;20.15;14.30;;;13.30;74.80;;;;;;5055137;28;20442;-70
2023/05/05 02:03:47;;;;;;;21.35;14.05;;;13.30;75.40;;;;;;5055138;28;20040;-70
2023/05/05 02:06:15;;;;;;;23.33;17.05;;;13.20;75.90;;;;;;5055186;28;20021;-70
2023/05/05 02:08:42;;;;;;;23.13;15.73;;;13.10;76.70;;;;;;5055518;28;20026;-70
2023/05/05 02:11:10;;;;;;;22.60;15.40;;;13.00;76.30;;;;;;5053968;28;20025;-70
2023/05/05 02:13:37;;;;;;;21.98;15.50;;;13.00;76.40;;;;;;5055183;28;20462;-70
2023/05/05 02:16:05;;;;;;;18.63;12.57;;;12.90;76.80;;;;;;5055400;28;20096;-70
2023/05/05 02:18:34;;;;;;;19.30;12.63;;;12.90;76.30;;;;;;5055143;28;20033;-70
2023/05/05 02:21:01;;;;;;;17.58;12.65;;;12.90;76.10;;;;;;5054770;28;20405;-70
2023/05/05 02:23:27;;;;;;;16.70;12.00;;;12.90;76.90;;;;;;5054782;28;20488;-70
2023/05/05 02:26:03;;;;;;;14.60;10.35;;;12.90;76.10;;;;;;5055001;28;20032;-70
2023/05/05 02:28:50;;;;;;;21.42;13.82;;;12.90;75.80;;;;;;5055128;28;20056;-70
2023/05/05 02:31:18;;;;;;;17.00;12.30;;;12.90;75.70;;;;;;5054928;28;20025;-70
2023/05/05 02:33:46;;;;;;;19.55;14.60;;;12.90;76.30;;;;;;5055039;28;20044;-70
2023/05/05 02:36:24;;;;;;;17.98;12.70;;;12.90;77.30;;;;;;5055413;28;20025;-70
2023/05/05 02:39:02;;;;;;;14.40;11.00;;;12.90;76.30;;;;;;5054920;28;20021;-70
2023/05/05 02:41:32;;;;;;;16.33;11.85;;;12.90;76.00;;;;;;5054890;28;20045;-70
2023/05/05 02:44:00;;;;;;;14.90;10.35;;;12.80;76.00;;;;;;5054659;28;20032;-70
2023/05/05 02:46:27;;;;;;;14.93;10.90;;;12.80;75.90;;;;;;5054852;28;20052;-70
2023/05/05 02:48:54;;;;;;;15.95;10.48;;;12.80;75.90;;;;;;5054992;28;20025;-70
2023/05/05 02:51:20;;;;;;;14.43;10.48;;;12.80;75.70;;;;;;5054717;28;20017;-70
2023/05/05 02:53:46;;;;;;;15.60;10.68;;;12.80;75.70;;;;;;5054749;28;20401;-70
2023/05/05 02:56:33;;;;;;;16.40;10.90;;;12.80;75.60;;;;;;5055037;28;20096;-70
2023/05/05 02:59:29;;;;;;;16.88;11.40;;;12.80;75.50;;;;;;5055081;28;20029;-70
2023/05/05 03:02:18;;;;;;;17.25;12.32;;;12.70;75.60;;;;;;5054717;28;20017;-70
2023/05/05 03:04:49;;;;;;;16.58;11.18;;;12.80;75.60;;;;;;5054483;28;20029;-70
2023/05/05 03:07:25;;;;;;;18.75;13.13;;;12.70;75.90;;;;;;5054912;28;20021;-70
2023/05/05 03:10:04;;;;;;;18.85;13.02;;;12.60;76.00;;;;;;5054416;28;20021;-70
2023/05/05 03:12:44;;;;;;;15.02;10.63;;;12.60;76.30;;;;;;5054600;28;20100;-70
2023/05/05 03:15:12;;;;;;;16.58;11.30;;;12.60;76.10;;;;;;5056594;28;20025;-70
2023/05/05 03:17:40;;;;;;;14.38;10.10;;;12.60;76.20;;;;;;5058242;28;20447;-70
2023/05/05 03:20:07;;;;;;;14.85;10.32;;;12.60;76.00;;;;;;5058226;28;20108;-70
2023/05/05 03:22:36;;;;;;;17.13;11.20;;;12.60;76.00;;;;;;5058077;28;20025;-70
2023/05/05 03:25:03;;;;;;;18.40;11.73;;;12.60;76.00;;;;;;5057764;28;20025;-70
2023/05/05 03:27:30;;;;;;;13.00;9.70;;;12.60;75.90;;;;;;5057740;28;20052;-70
2023/05/05 03:29:56;;;;;;;15.15;10.35;;;12.60;75.90;;;;;;5058262;28;20071;-70
2023/05/05 03:32:23;;;;;;;19.63;11.90;;;12.60;76.10;;;;;;5058148;28;20067;-70
2023/05/05 03:34:49;;;;;;;19.25;12.38;;;12.50;76.70;;;;;;5057965;28;20033;-70
2023/05/05 03:37:15;;;;;;;15.32;10.20;;;12.50;76.60;;;;;;5057653;28;20025;-70
2023/05/05 03:39:41;;;;;;;17.92;12.18;;;12.50;76.80;;;;;;5057483;28;20040;-70
2023/05/05 03:42:07;;;;;;;15.38;10.93;;;12.40;77.10;;;;;;5057449;28;20324;-70
2023/05/05 03:44:33;;;;;;;15.38;10.63;;;12.40;76.90;;;;;;5057520;28;20127;-70
2023/05/05 03:46:59;;;;;;;20.00;11.80;;;12.40;76.60;;;;;;5057615;28;20029;-70
2023/05/05 03:49:25;;;;;;;19.85;14.32;;;12.40;76.50;;;;;;5057422;28;20025;-70
2023/05/05 03:51:51;;;;;;;15.45;10.13;;;12.40;77.00;;;;;;5057539;28;20025;-70
2023/05/05 03:54:17;;;;;;;16.55;10.93;;;12.40;76.60;;;;;;5057267;28;20351;-70
2023/05/05 03:56:43;;;;;;;19.50;13.23;;;12.40;76.50;;;;;;5057258;28;20033;-70
2023/05/05 03:59:09;;;;;;;20.58;13.85;;;12.40;76.80;;;;;;5057721;28;20021;-70
2023/05/05 04:01:35;;;;;;;20.13;13.38;;;12.40;77.10;;;;;;5057408;28;20032;-70
2023/05/05 04:04:01;;;;;;;19.23;13.70;;;12.40;77.20;;;;;;5057144;28;20033;-70
2023/05/05 04:06:27;;;;;;;16.45;11.90;;;12.30;77.30;;;;;;5057274;28;20078;-70
2023/05/05 04:08:53;;;;;;;16.77;11.52;;;12.30;77.30;;;;;;5057296;28;20032;-70
2023/05/05 04:11:20;;;;;;;16.35;11.38;;;12.30;77.00;;;;;;5057168;28;20460;-70
2023/05/05 04:13:48;;;;;;;19.30;13.20;;;12.40;77.00;;;;;;5057257;28;20029;-70
2023/05/05 04:16:15;;;;;;;17.27;11.77;;;12.40;77.10;;;;;;5056861;28;20053;-70
2023/05/05 04:18:41;;;;;;;15.60;10.98;;;12.40;77.00;;;;;;5057112;28;20035;-70
2023/05/05 04:21:07;;;;;;;13.85;10.15;;;12.40;77.20;;;;;;5057013;28;20029;-70
2023/05/05 04:23:32;;;;;;;13.13;9.27;;;12.40;77.00;;;;;;5056787;28;20079;-70
2023/05/05 04:25:59;;;;;;;14.75;9.63;;;12.50;76.80;;;;;;5056850;28;20025;-70
2023/05/05 04:28:25;;;;;;;15.45;10.63;;;12.60;76.60;;;;;;5056937;28;20449;-70
2023/05/05 04:30:51;;;;;;;15.23;9.93;;;12.60;76.50;;;;;;5056880;28;20021;-70
2023/05/05 04:33:17;;;;;;;16.60;9.65;;;12.70;76.40;;;;;;5056509;28;20066;-70
2023/05/05 04:35:43;;;;;;;13.73;9.55;;;12.80;76.30;;;;;;5056531;28;20111;-70
2023/05/05 04:38:09;;;;;;;14.30;10.43;;;12.90;76.20;;;;;;5056486;28;20102;-70
2023/05/05 04:40:39;;;;;;;14.65;10.52;;;13.00;76.30;;;;;;5056692;28;20438;-70
2023/05/05 04:43:05;;;;;;;16.00;10.95;;;13.10;76.30;;;;;;5056297;28;20028;-70
2023/05/05 04:45:31;;;;;;;17.00;11.88;;;13.30;76.40;;;;;;5056193;28;20060;-70
2023/05/05 04:47:57;;;;;;;16.98;11.90;;;13.40;76.30;;;;;;5056795;28;20442;-70
2023/05/05 04:50:24;;;;;;;15.30;10.55;;;13.90;76.60;;;;;;5056274;28;20025;-70
2023/05/05 04:52:50;;;;;;;15.82;10.32;;;14.50;76.10;;;;;;5055245;28;20442;-70
2023/05/05 04:55:15;;;;;;;16.92;12.48;;;15.20;75.80;;;;;;5056060;28;20474;-70
2023/05/05 04:57:41;;;;;;;18.42;11.57;;;16.00;74.70;;;;;;5056087;28;20027;-70
2023/05/05 05:00:08;;;;;;;15.40;11.35;;;16.90;73.20;;;;;;5056073;28;20055;-70
2023/05/05 05:02:36;;;;;;;14.20;10.13;;;17.60;71.50;;;;;;5055908;28;20071;-70
2023/05/05 05:05:02;;;;;;;15.25;9.68;;;18.40;70.30;;;;;;5054861;28;20036;-70
2023/05/05 05:07:28;;;;;;;12.15;8.90;;;19.10;68.90;;;;;;5055009;28;20316;-70
2023/05/05 05:09:54;;;;;;;11.68;8.82;;;19.90;67.40;;;;;;5056085;28;20108;-70
2023/05/05 05:12:20;;;;;;;11.68;8.52;;;20.50;66.00;;;;;;5055740;28;20021;-70
2023/05/05 05:14:46;;;;;;;11.35;7.90;;;21.10;64.50;;;;;;5055797;28;20021;-70
2023/05/05 05:17:12;;;;;;;12.30;8.77;;;21.70;63.30;;;;;;5056004;28;20024;-70
2023/05/05 05:19:38;;;;;;;14.32;9.30;;;22.30;62.10;;;;;;5055931;28;20033;-70
2023/05/05 05:22:04;;;;;;;12.32;8.68;;;22.80;60.80;;;;;;5055945;28;20347;-70
2023/05/05 05:24:30;;;;;;;12.63;9.15;;;23.50;59.30;;;;;;5055613;28;20068;-70
2023/05/05 05:26:57;;;;;;;12.43;8.70;;;24.20;57.90;;;;;;5056029;28;20067;-70
2023/05/05 05:29:23;;;;;;;13.63;9.38;;;24.90;56.50;;;;;;5055520;28;20021;-70
2023/05/05 05:31:49;;;;;;;15.10;9.15;;;25.60;54.60;;;;;;5055359;28;20028;-70
2023/05/05 05:34:15;;;;;;;15.05;9.65;;;26.40;53.20;;;;;;5055345;28;20152;-71
2023/05/05 05:36:41;;;;;;;14.15;8.73;;;27.10;51.40;;;;;;5055404;28;20039;-71
2023/05/05 05:39:07;;;;;;;57.60;13.23;;;27.30;50.50;;;;;;5055001;28;20411;-69
2023/05/05 05:41:33;;;;;;;13.82;7.90;;;27.40;50.20;;;;;;5055223;28;20374;-69
2023/05/05 05:43:59;;;;;;;12.40;7.95;;;27.40;49.20;;;;;;5055774;28;20031;-69
2023/05/05 05:46:25;;;;;;;11.60;8.10;;;27.60;49.50;;;;;;5055669;28;20029;-69
2023/05/05 05:48:51;;;;;;;10.82;7.93;;;27.90;48.80;;;;;;5055403;28;20036;-75
2023/05/05 05:51:17;;;;;;;63.65;15.60;;;28.40;48.90;;;;;;5055114;28;20100;-71
2023/05/05 05:53:43;;;;;;;14.40;8.52;;;28.90;47.30;;;;;;5055002;28;20104;-70
2023/05/05 05:56:09;;;;;;;11.88;7.60;;;29.40;46.40;;;;;;5055661;28;20029;-71
2023/05/05 05:58:36;;;;;;;10.68;7.82;;;30.00;45.70;;;;;;5055052;28;20124;-73
2023/05/05 06:01:03;;;;;;;12.13;8.30;;;30.60;45.10;;;;;;5055274;28;20025;-69
2023/05/05 06:03:30;;;;;;;11.50;8.75;;;31.10;43.60;;;;;;5055074;28;20033;-69
2023/05/05 06:05:57;;;;;;;10.00;7.18;;;31.60;41.70;;;;;;5054907;28;20454;-70
2023/05/05 06:08:23;;;;;;;10.52;8.00;;;32.20;41.30;;;;;;5055272;28;20029;-70
2023/05/05 06:10:49;;;;;;;9.60;7.00;;;32.80;40.00;;;;;;5054998;28;20442;-70
2023/05/05 06:13:15;;;;;;;11.60;8.50;;;33.40;39.80;;;;;;5055131;28;20096;-70
2023/05/05 06:15:41;;;;;;;12.38;7.68;;;33.70;38.10;;;;;;5054911;28;20111;-70
2023/05/05 06:18:07;;;;;;;11.75;7.40;;;33.90;36.80;;;;;;5054948;28;20112;-69
2023/05/05 06:20:33;;;;;;;9.52;7.32;;;34.00;37.10;;;;;;5054293;28;20028;-69
2023/05/05 06:22:59;;;;;;;11.32;8.20;;;34.50;36.60;;;;;;5054825;28;20024;-70
2023/05/05 06:25:25;;;;;;;10.63;7.78;;;35.00;35.90;;;;;;5055061;28;20032;-71
2023/05/05 06:27:51;;;;;;;10.60;7.75;;;35.40;35.50;;;;;;5054881;28;20354;-72
2023/05/05 06:30:17;;;;;;;9.98;7.80;;;35.80;34.60;;;;;;5054804;28;20017;-71
2023/05/05 06:32:43;;;;;;;10.35;7.80;;;35.40;33.80;;;;;;5054715;28;20032;-70
2023/05/05 06:35:09;;;;;;;11.00;8.85;;;35.00;33.90;;;;;;5055236;28;20043;-70
2023/05/05 06:37:35;;;;;;;10.05;7.63;;;34.70;33.90;;;;;;5054988;28;20049;-70
2023/05/05 06:40:01;;;;;;;10.40;8.05;;;34.60;34.00;;;;;;5055011;28;20102;-71
2023/05/05 06:42:29;;;;;;;11.40;8.13;;;35.00;33.80;;;;;;5054627;28;20455;-70
2023/05/05 06:44:55;;;;;;;11.88;8.07;;;35.70;33.00;;;;;;5054636;28;20096;-70
2023/05/05 06:47:21;;;;;;;10.35;7.13;;;36.30;32.20;;;;;;5054828;28;20117;-70
2023/05/05 06:49:47;;;;;;;10.50;7.75;;;36.90;31.40;;;;;;5057933;28;20431;-70
2023/05/05 06:52:13;;;;;;;11.07;8.20;;;37.40;30.60;;;;;;5058709;28;20025;-70
2023/05/05 06:54:39;;;;;;;10.68;8.27;;;37.70;29.80;;;;;;5058304;28;20045;-70
2023/05/05 06:57:05;;;;;;;20.02;8.02;;;37.70;29.60;;;;;;5058895;28;20090;-70
2023/05/05 06:59:31;;;;;;;9.27;7.45;;;37.20;29.90;;;;;;5058337;28;20056;-70
2023/05/05 07:01:57;;;;;;;11.73;8.45;;;36.30;30.70;;;;;;5058548;28;20036;-70
2023/05/05 07:04:23;;;;;;;10.48;7.95;;;35.20;31.80;;;;;;5058287;28;20450;-70
2023/05/05 07:06:49;;;;;;;11.90;8.90;;;34.00;33.20;;;;;;5058710;28;20100;-70
2023/05/05 07:09:15;;;;;;;9.70;7.45;;;32.90;34.50;;;;;;5057224;28;20347;-70
2023/05/05 07:11:41;;;;;;;10.50;7.88;;;31.90;35.80;;;;;;5058348;28;20066;-70
2023/05/05 07:14:07;;;;;;;11.80;8.98;;;31.10;37.00;;;;;;5058101;28;20036;-70
2023/05/05 07:16:35;;;;;;;12.05;8.52;;;30.50;38.00;;;;;;5058070;28;20025;-70
2023/05/05 07:19:04;;;;;;;12.18;8.25;;;29.90;38.80;;;;;;5057972;28;20040;-70
2023/05/05 07:21:35;;;;;;;12.75;8.68;;;29.50;39.60;;;;;;5058190;28;20480;-70
2023/05/05 07:24:04;;;;;;;11.85;8.35;;;29.20;40.20;;;;;;5058231;28;20051;-70
2023/05/05 07:26:30;;;;;;;12.25;9.05;;;28.90;40.80;;;;;;5057801;28;20060;-70
2023/05/05 07:28:57;;;;;;;10.68;7.72;;;28.70;41.40;;;;;;5057850;28;20059;-70
2023/05/05 07:31:24;;;;;;;11.30;8.27;;;28.50;41.60;;;;;;5057990;28;20025;-70
2023/05/05 07:33:50;;;;;;;11.73;9.38;;;28.40;41.90;;;;;;5057982;28;20033;-70
2023/05/05 07:36:17;;;;;;;12.27;8.52;;;28.20;41.90;;;;;;5058199;28;20029;-70
2023/05/05 07:38:43;;;;;;;13.38;8.90;;;27.80;42.00;;;;;;5057901;28;20357;-70
2023/05/05 07:41:12;;;;;;;12.75;8.15;;;27.50;42.50;;;;;;5057751;28;20021;-70
2023/05/05 07:43:41;;;;;;;11.93;8.32;;;27.40;42.80;;;;;;5057803;28;20022;-70
2023/05/05 07:46:08;;;;;;;9.88;7.50;;;27.40;43.20;;;;;;5057693;28;20032;-70
2023/05/05 07:48:34;;;;;;;11.55;8.48;;;27.40;43.60;;;;;;5057420;28;20031;-70
2023/05/05 07:50:59;;;;;;;13.20;9.32;;;27.40;43.50;;;;;;5057288;28;20021;-70
2023/05/05 07:53:26;;;;;;;10.52;7.80;;;27.40;43.70;;;;;;5057661;28;20083;-70
2023/05/05 07:55:52;;;;;;;11.50;8.45;;;27.40;43.80;;;;;;5057601;28;20095;-70
2023/05/05 07:58:18;;;;;;;11.93;6.97;;;27.30;43.80;;;;;;5057867;28;20021;-70
2023/05/05 08:00:44;;;;;;;10.70;7.60;;;27.30;43.80;;;;;;5056789;28;20462;-70
2023/05/05 08:03:10;;;;;;;12.23;7.68;;;27.30;44.00;;;;;;5057068;28;20029;-70
2023/05/05 08:05:37;;;;;;;11.10;8.80;;;27.20;43.90;;;;;;5056439;28;20025;-70
2023/05/05 08:08:03;;;;;;;12.27;8.90;;;27.10;43.80;;;;;;5057345;28;20074;-70
2023/05/05 08:10:29;;;;;;;10.40;7.95;;;26.90;43.90;;;;;;5057057;28;20067;-70
2023/05/05 08:12:55;;;;;;;14.13;9.10;;;26.90;44.20;;;;;;5056977;28;20041;-70
2023/05/05 08:15:21;;;;;;;11.43;8.60;;;26.90;44.20;;;;;;5056968;28;20074;-70
2023/05/05 08:17:49;;;;;;;11.93;8.30;;;26.90;44.40;;;;;;5057446;28;20032;-70
2023/05/05 08:20:17;;;;;;;12.18;8.30;;;26.90;44.30;;;;;;5056818;28;20036;-70
2023/05/05 08:22:43;;;;;;;12.00;8.25;;;26.90;44.50;;;;;;5056776;28;20025;-70
2023/05/05 08:25:10;;;;;;;12.82;8.48;;;27.00;44.60;;;;;;5056936;28;20431;-70
2023/05/05 08:27:40;;;;;;;10.95;8.15;;;27.00;44.70;;;;;;5057000;28;20022;-70
2023/05/05 08:30:07;;;;;;;12.98;9.45;;;27.10;44.60;;;;;;5056743;28;20493;-70
2023/05/05 08:32:33;;;;;;;14.70;9.90;;;27.00;44.60;;;;;;5056541;28;20485;-70
2023/05/05 08:35:03;;;;;;;12.45;10.07;;;26.90;44.70;;;;;;5056884;28;20021;-70
2023/05/05 08:37:30;;;;;;;11.15;8.23;;;26.80;44.70;;;;;;5056809;28;20029;-70
2023/05/05 08:39:56;;;;;;;11.48;9.30;;;26.70;44.90;;;;;;5055540;28;20036;-70
2023/05/05 08:42:22;;;;;;;10.93;8.63;;;26.70;45.20;;;;;;5056425;28;20464;-70
2023/05/05 08:44:48;;;;;;;11.68;8.38;;;26.70;45.20;;;;;;5056976;28;20029;-70
2023/05/05 08:47:15;;;;;;;11.23;8.50;;;26.80;45.30;;;;;;5056529;28;20053;-70
2023/05/05 08:49:45;;;;;;;10.98;8.65;;;26.80;45.20;;;;;;5056275;28;20074;-70
2023/05/05 08:52:22;;;;;;;12.90;8.43;;;26.80;45.20;;;;;;5056154;28;20461;-70
2023/05/05 08:55:00;;;;;;;12.25;8.85;;;26.90;45.30;;;;;;5056124;28;20045;-70
2023/05/05 08:57:39;;;;;;;13.63;9.50;;;26.90;45.20;;;;;;5056198;28;20358;-70
2023/05/05 09:00:08;;;;;;;12.95;8.68;;;26.90;45.10;;;;;;5056421;28;20039;-70
2023/05/05 09:02:35;;;;;;;14.30;9.85;;;26.90;45.30;;;;;;5055940;28;20025;-70
2023/05/05 09:05:04;;;;;;;11.98;7.70;;;26.90;45.40;;;;;;5055941;28;20079;-70
2023/05/05 09:07:31;;;;;;;15.27;9.48;;;26.80;45.60;;;;;;5054882;28;20332;-70
2023/05/05 09:09:59;;;;;;;12.48;9.38;;;26.80;45.60;;;;;;5056182;28;20473;-70
2023/05/05 09:12:31;;;;;;;13.35;8.70;;;26.90;45.40;;;;;;5055078;28;20100;-70
2023/05/05 09:14:57;;;;;;;10.63;7.75;;;26.80;45.60;;;;;;5056136;28;20021;-70
2023/05/05 09:17:24;;;;;;;11.80;8.32;;;26.80;45.60;;;;;;5056043;28;20047;-70
2023/05/05 09:20:10;;;;;;;9.77;7.57;;;26.80;45.60;;;;;;5055684;28;20047;-70
2023/05/05 09:22:44;;;;;;;11.30;7.50;;;26.90;45.30;;;;;;5055861;28;20108;-70
2023/05/05 09:25:12;;;;;;;11.48;8.30;;;26.90;45.80;;;;;;5056115;28;20438;-70
2023/05/05 09:27:41;;;;;;;11.68;7.82;;;27.00;45.90;;;;;;5056110;28;20021;-70
2023/05/05 09:30:09;;;;;;;10.40;7.20;;;27.00;45.70;;;;;;5055822;28;20020;-70
2023/05/05 09:32:49;;;;;;;12.35;8.45;;;27.00;45.70;;;;;;5055494;28;20341;-70
2023/05/05 09:35:17;;;;;;;10.77;6.72;;;26.90;45.60;;;;;;5055739;28;20059;-70
2023/05/05 09:37:44;;;;;;;11.45;7.85;;;26.90;45.80;;;;;;5055438;28;20028;-70
2023/05/05 09:40:12;;;;;;;11.48;7.80;;;26.90;45.90;;;;;;5054421;28;20064;-70
2023/05/05 09:42:39;;;;;;;11.65;7.60;;;26.80;45.50;;;;;;5055428;28;20036;-70
2023/05/05 09:45:10;;;;;;;10.38;7.28;;;26.80;45.60;;;;;;5055352;28;20035;-70
2023/05/05 09:47:36;;;;;;;12.63;8.70;;;26.70;45.90;;;;;;5055339;28;20033;-70
2023/05/05 09:50:03;;;;;;;11.00;8.13;;;26.70;45.90;;;;;;5055269;28;20103;-70
2023/05/05 09:52:29;;;;;;;13.20;8.77;;;26.60;45.90;;;;;;5055183;28;20029;-69
2023/05/05 09:54:56;;;;;;;12.85;7.93;;;26.60;46.00;;;;;;5054974;28;20045;-70
2023/05/05 09:57:26;;;;;;;9.90;7.32;;;26.50;45.90;;;;;;5054245;28;20025;-70
2023/05/05 10:00:03;;;;;;;10.75;7.03;;;26.50;45.90;;;;;;5055411;28;20091;-70
2023/05/05 10:02:34;;;;;;;9.82;7.00;;;26.50;46.20;;;;;;5055314;28;20033;-70
2023/05/05 10:05:16;;;;;;;9.73;7.28;;;26.50;46.30;;;;;;5055572;28;20029;-70
2023/05/05 10:07:45;;;;;;;11.38;8.27;;;26.60;46.10;;;;;;5055217;28;20033;-70
2023/05/05 10:10:16;;;;;;;9.63;7.15;;;26.70;46.10;;;;;;5055485;28;20036;-70
2023/05/05 10:12:42;;;;;;;11.40;7.68;;;26.70;46.10;;;;;;5054952;28;20017;-70
2023/05/05 10:15:10;;;;;;;10.48;7.68;;;26.80;46.10;;;;;;5055190;28;20024;-70
2023/05/05 10:17:47;;;;;;;10.80;7.50;;;26.80;46.20;;;;;;5055180;28;20049;-70
2023/05/05 10:20:15;;;;;;;11.40;9.57;;;26.90;45.70;;;;;;5055213;28;20025;-70
2023/05/05 10:22:52;;;;;;;12.85;8.65;;;26.80;45.70;;;;;;5053888;28;20049;-70
2023/05/05 10:25:31;;;;;;;12.15;7.82;;;26.70;45.40;;;;;;5059223;28;20059;-70
2023/05/05 10:28:00;;;;;;;9.80;7.20;;;26.70;46.00;;;;;;5059334;28;20021;-70
2023/05/05 10:30:30;;;;;;;10.63;7.57;;;26.70;45.90;;;;;;5059199;28;20025;-70
2023/05/05 10:33:18;;;;;;;10.95;7.88;;;26.70;46.00;;;;;;5059139;28;20040;-70
2023/05/05 10:35:48;;;;;;;10.95;7.30;;;26.70;46.00;;;;;;5059169;28;20028;-70
2023/05/05 10:38:16;;;;;;;12.15;8.60;;;26.70;46.10;;;;;;5058716;28;20401;-70
2023/05/05 10:40:46;;;;;;;13.70;9.20;;;26.80;46.40;;;;;;5058769;28;20031;-70
2023/05/05 10:43:16;;;;;;;15.55;10.48;;;26.80;46.50;;;;;;5058961;28;20021;-70
2023/05/05 10:45:43;;;;;;;13.05;9.70;;;26.90;46.40;;;;;;5058630;28;20443;-70
2023/05/05 10:48:21;;;;;;;14.65;9.70;;;26.80;46.30;;;;;;5058904;28;20021;-70
2023/05/05 10:50:52;;;;;;;11.70;8.23;;;26.70;46.10;;;;;;5058015;28;20025;-70
2023/05/05 10:53:24;;;;;;;12.07;8.35;;;26.50;46.40;;;;;;5058497;28;20047;-70
2023/05/05 10:56:20;;;;;;;12.05;7.47;;;26.50;46.70;;;;;;5057448;28;20102;-70
2023/05/05 10:58:46;;;;;;;14.20;10.45;;;26.60;46.90;;;;;;5057672;28;20158;-70
2023/05/05 11:01:31;;;;;;;16.77;9.07;;;26.60;46.90;;;;;;5058540;28;20036;-70
2023/05/05 11:04:17;;;;;;;12.95;9.18;;;26.60;46.50;;;;;;5058636;28;20417;-70
2023/05/05 11:07:07;;;;;;;10.27;8.02;;;26.60;46.60;;;;;;5057270;28;20090;-70
2023/05/05 11:09:41;;;;;;;12.73;8.02;;;26.60;46.90;;;;;;5058180;28;20099;-70
2023/05/05 11:12:07;;;;;;;11.88;7.88;;;26.60;46.80;;;;;;5058704;28;20025;-70
2023/05/05 11:14:33;;;;;;;12.15;9.10;;;26.60;47.00;;;;;;5058378;28;20021;-70
2023/05/05 11:17:00;;;;;;;14.25;9.57;;;26.60;47.00;;;;;;5058632;28;20021;-70
2023/05/05 11:19:45;;;;;;;11.73;8.30;;;26.60;46.80;;;;;;5057949;28;20043;-70
2023/05/05 11:22:11;;;;;;;13.45;9.00;;;26.50;45.70;;;;;;5058447;28;20033;-70
2023/05/05 11:24:38;;;;;;;11.93;8.98;;;26.50;46.70;;;;;;5057973;28;20343;-70
2023/05/05 11:27:05;;;;;;;10.55;7.65;;;26.40;46.70;;;;;;5058072;28;20071;-70
2023/05/05 11:30:06;;;;;;;11.57;7.07;;;26.40;46.90;;;;;;5058161;28;20136;-70
2023/05/05 11:32:35;;;;;;;11.30;8.27;;;26.40;47.30;;;;;;5057973;28;20032;-70
2023/05/05 11:35:01;;;;;;;10.60;7.88;;;26.50;47.40;;;;;;5056753;28;20048;-70
2023/05/05 11:37:27;;;;;;;11.73;8.73;;;26.70;47.10;;;;;;5057932;28;20029;-70
2023/05/05 11:40:02;;;;;;;13.18;9.02;;;26.60;46.80;;;;;;5057696;28;20029;-70
2023/05/05 11:42:29;;;;;;;11.15;8.63;;;26.70;46.80;;;;;;5056666;28;20124;-70
2023/05/05 11:44:55;;;;;;;12.93;9.10;;;26.70;47.10;;;;;;5057543;28;20028;-70
2023/05/05 11:47:21;;;;;;;12.35;8.00;;;26.70;47.30;;;;;;5057699;28;20086;-70
2023/05/05 11:49:48;;;;;;;12.65;8.68;;;26.60;47.10;;;;;;5057422;28;20029;-70
2023/05/05 11:52:14;;;;;;;11.00;7.85;;;26.60;47.10;;;;;;5057495;28;20358;-70
2023/05/05 11:54:48;;;;;;;9.70;7.22;;;26.50;47.30;;;;;;5057227;28;20071;-70
2023/05/05 11:57:18;;;;;;;11.02;8.02;;;26.60;47.40;;;;;;5057325;28;20413;-70
2023/05/05 12:00:01;;;;;;;10.50;6.65;;;26.60;47.40;;;;;;5057240;28;20457;-70
2023/05/05 12:02:28;;;;;;;9.43;6.72;;;26.60;47.20;;;;;;5057502;28;20060;-70
2023/05/05 12:04:56;;;;;;;9.75;7.18;;;26.60;47.10;;;;;;5057170;28;20441;-70
2023/05/05 12:07:24;;;;;;;10.45;7.03;;;26.60;47.10;;;;;;5057069;28;20086;-70
2023/05/05 12:09:51;;;;;;;9.07;6.68;;;26.60;46.80;;;;;;5056294;28;20342;-70
2023/05/05 12:12:17;;;;;;;8.65;6.10;;;26.50;46.50;;;;;;5056978;28;20021;-70
2023/05/05 12:14:44;;;;;;;7.72;5.22;;;26.50;47.00;;;;;;5057265;28;20371;-70
2023/05/05 12:17:10;;;;;;;7.43;5.45;;;26.50;47.30;;;;;;5056914;28;20144;-70
2023/05/05 12:19:43;;;;;;;8.48;6.10;;;26.60;47.30;;;;;;5057207;28;20104;-70
2023/05/05 12:22:09;;;;;;;8.68;6.47;;;26.70;47.00;;;;;;5057036;28;20029;-70
2023/05/05 12:24:35;;;;;;;10.07;6.43;;;26.60;46.90;;;;;;5056858;28;20021;-70
2023/05/05 12:27:08;;;;;;;7.65;4.88;;;26.70;46.80;;;;;;5056752;28;20040;-70
2023/05/05 12:29:33;;;;;;;;;;;26.70;46.90;;;;;;5057168;28;20438;-70
2023/05/05 12:32:00;;;;;;;9.10;6.05;;;26.70;46.50;;;;;;5056777;28;19915;-70
2023/05/05 12:34:26;;;;;;;8.35;5.95;;;26.70;46.70;;;;;;5057107;28;20041;-70
2023/05/05 12:36:52;;;;;;;8.77;5.90;;;26.70;46.60;;;;;;5056842;28;20101;-70
2023/05/05 12:39:18;;;;;;;9.82;6.00;;;26.70;46.60;;;;;;5056839;28;20032;-70
2023/05/05 12:41:44;;;;;;;7.35;5.15;;;26.70;46.60;;;;;;5056437;28;20025;-70
2023/05/05 12:44:10;;;;;;;9.73;6.10;;;26.70;46.60;;;;;;5056723;28;20036;-70
2023/05/05 12:46:46;;;;;;;7.95;5.40;;;26.70;46.60;;;;;;5056145;28;20036;-70